Airfield :
LOGIN :

Register | Disclaimer

   EN    FR    IT 

 










Legend :    VFR   Marginal VFR   IFR   Intensive IFR   Very Intensive IFR
Visi :
Ceiling :
>= 8 km
>= 3000ft
5 to 8 km
1000 to 3000 ft
1500m to 5 km
500 to 1000 ft
800 to 1500m
200 to 500 ft
< 800m
< 200 ft
Symbols :   Thunderstorms  Fog  Heavy snow  Heavy precipitations  Wind > 20 kt
SIGMETs :     Misc.  Thunderstorms  Icing  Turbulence  Mountain Waves  Volcanic Ashes







- Airport Elevation : 1115 ft
- IATA code : GRZ


LOWG - Graz

CURRENT METAR :
  • 261150Z 16003KT 090V230 9999 FEW055 SCT090 BKN130 19/11 Q1005 NOSIG

EXPIRED METARs :
  • 261120Z 10005KT 030V170 9999 FEW045 SCT090 BKN130 19/12 Q1005 NOSIG
  • 261050Z 13003KT 060V210 9999 FEW045 SCT100 BKN130 19/12 Q1005 NOSIG
  • 261020Z VRB03KT 9999 FEW030 SCT100 BKN130 19/12 Q1005 NOSIG
  • 260950Z VRB03KT 9999 FEW030 BKN100 18/12 Q1005 NOSIG
  • 260920Z VRB02KT 9999 FEW020 BKN100 17/13 Q1006 NOSIG

TAF TAF LOWG
Valid from the 26 at 12:00 until the 27 at 12:00 UTC


261115Z 2612/2712 16005KT 9999 FEW050 BKN100 TX22/2712Z TN14/2703Z
PROB30
TEMPO 2612/2616 31010KT SHRA FEW030 SCT050TCU BKN060
TEMPO 2621/2706 VRB02KT -RA
No reported NOTAMs for that airfield.



MET'MAP, your aeronautical weather chart ! - Copyright ORBIFLY December 2007 - Disclaimer

ORBIFLY MET'MAP TEAM :

Programming & Development : Alexandra Zaïnal
Concept & Development : Baudouin d'Aumeries
Co-Development & Prog : Marc-Olivier Méhu
Technical & hardware support : Manuel Goepfert

Contact : metmap@orbifly.com




SOURCES & CREDITS :

   NOAA